createdAt,value
2022-12-29T00:00:09.243Z,97627.80
2022-12-29T00:02:42.612Z,97634.20
2022-12-29T00:05:09.989Z,97632.40
2022-12-29T00:07:36.754Z,97625.80
2022-12-29T00:10:04.441Z,97631.40
2022-12-29T00:12:51.105Z,97635.80
2022-12-29T00:15:43.690Z,97633.00
2022-12-29T00:18:10.569Z,97626.80
2022-12-29T00:20:57.274Z,97630.00
2022-12-29T00:23:43.476Z,97628.20
2022-12-29T00:26:34.094Z,97620.40
2022-12-29T00:29:19.546Z,97617.60
2022-12-29T00:32:04.752Z,97612.40
2022-12-29T00:34:50.329Z,97618.60
2022-12-29T00:37:17.480Z,97620.60
2022-12-29T00:40:03.297Z,97615.80
2022-12-29T00:42:49.989Z,97611.20
2022-12-29T00:45:16.653Z,97607.00
2022-12-29T00:47:44.994Z,97603.20
2022-12-29T00:50:11.705Z,97600.20
2022-12-29T00:52:38.389Z,97594.40
2022-12-29T00:55:05.617Z,97589.40
2022-12-29T00:57:32.265Z,97588.60
2022-12-29T00:59:58.993Z,97588.40
2022-12-29T01:02:25.776Z,97592.60
2022-12-29T01:04:52.680Z,97590.00
2022-12-29T01:07:19.381Z,97583.00
2022-12-29T01:10:04.809Z,97582.00
2022-12-29T01:12:44.973Z,97586.40
2022-12-29T01:15:15.137Z,97582.60
2022-12-29T01:17:42.122Z,97573.80
2022-12-29T01:20:09.575Z,97571.20
2022-12-29T01:22:36.409Z,97563.80
2022-12-29T01:25:04.080Z,97566.60
2022-12-29T01:27:31.020Z,97565.00
2022-12-29T01:29:58.179Z,97565.80
2022-12-29T01:32:25.330Z,97564.00
2022-12-29T01:34:52.049Z,97566.80
2022-12-29T01:37:18.832Z,97561.80
2022-12-29T01:39:45.577Z,97562.00
2022-12-29T01:42:20.496Z,97559.00
2022-12-29T01:44:59.350Z,97569.60
2022-12-29T01:47:29.313Z,97574.80
2022-12-29T01:49:59.843Z,97570.40
2022-12-29T01:52:30.991Z,97567.80
2022-12-29T01:54:59.417Z,97560.80
2022-12-29T01:57:32.715Z,97568.20
2022-12-29T02:00:13.346Z,97566.60
2022-12-29T02:02:48.938Z,97566.40
2022-12-29T02:05:26.053Z,97567.00
2022-12-29T02:07:54.210Z,97571.00
2022-12-29T02:10:26.947Z,97569.20
2022-12-29T02:12:54.818Z,97564.80
2022-12-29T02:15:35.643Z,97563.40
2022-12-29T02:18:11.622Z,97553.20
2022-12-29T02:20:58.303Z,97549.40
2022-12-29T02:23:53.154Z,97556.20
2022-12-29T02:26:38.040Z,97548.20
2022-12-29T02:29:23.488Z,97540.80
2022-12-29T02:32:41.720Z,97537.20
2022-12-29T02:35:27.271Z,97532.60
2022-12-29T02:38:22.746Z,97534.00
2022-12-29T02:41:11.340Z,97526.80
2022-12-29T02:43:48.768Z,97526.20
2022-12-29T02:46:35.140Z,97524.00
2022-12-29T02:49:17.532Z,97517.40
2022-12-29T02:52:05.026Z,97513.60
2022-12-29T02:54:44.725Z,97515.80
2022-12-29T02:57:29.674Z,97518.20
2022-12-29T03:00:08.778Z,97518.40
2022-12-29T03:03:07.566Z,97516.60
2022-12-29T03:06:00.557Z,97515.80
2022-12-29T03:08:52.401Z,97509.60
2022-12-29T03:11:37.521Z,97505.00
2022-12-29T03:14:29.347Z,97500.60
2022-12-29T03:17:01.599Z,97504.80
2022-12-29T03:19:33.569Z,97499.00
2022-12-29T03:22:31.012Z,97499.00
2022-12-29T03:25:19.105Z,97496.40
2022-12-29T03:27:51.090Z,97495.20
2022-12-29T03:30:19.298Z,97492.20
2022-12-29T03:32:51.610Z,97487.00
2022-12-29T03:35:21.945Z,97483.60
2022-12-29T03:38:06.205Z,97490.20
2022-12-29T03:40:35.440Z,97486.00
2022-12-29T03:43:04.408Z,97482.60
2022-12-29T03:45:34.283Z,97480.60
2022-12-29T03:48:01.074Z,97484.20
2022-12-29T03:50:28.202Z,97486.00
2022-12-29T03:52:55.032Z,97487.40
2022-12-29T03:55:23.093Z,97489.60
2022-12-29T03:57:49.930Z,97492.40
2022-12-29T04:00:22.472Z,97493.80
2022-12-29T04:02:49.882Z,97505.40
2022-12-29T04:05:21.705Z,97501.80
2022-12-29T04:07:50.488Z,97497.80
2022-12-29T04:10:17.560Z,97494.20
2022-12-29T04:12:47.757Z,97493.60
2022-12-29T04:15:14.757Z,97493.20
2022-12-29T04:17:42.291Z,97491.40
2022-12-29T04:20:28.487Z,97495.80
2022-12-29T04:23:07.261Z,97494.20
2022-12-29T04:25:35.782Z,97489.60
2022-12-29T04:28:03.731Z,97486.00
2022-12-29T04:30:54.973Z,97491.40
2022-12-29T04:33:25.395Z,97489.80
2022-12-29T04:35:55.103Z,97496.20
2022-12-29T04:38:25.123Z,97490.60
2022-12-29T04:40:52.676Z,97502.60
2022-12-29T04:43:23.412Z,97505.20
2022-12-29T04:46:08.905Z,97500.80
2022-12-29T04:48:43.656Z,97507.20
2022-12-29T04:51:32.270Z,97502.60
2022-12-29T04:53:59.015Z,97493.80
2022-12-29T04:56:26.982Z,97504.80
2022-12-29T04:58:53.723Z,97516.60
2022-12-29T05:01:21.599Z,97512.40
2022-12-29T05:03:51.353Z,97518.20
2022-12-29T05:06:19.370Z,97528.60
2022-12-29T05:08:46.304Z,97522.60
2022-12-29T05:11:13.156Z,97526.60
2022-12-29T05:13:40.089Z,97534.00
2022-12-29T05:16:07.416Z,97528.00
2022-12-29T05:18:34.602Z,97529.40
2022-12-29T05:21:01.483Z,97538.40
2022-12-29T05:23:28.593Z,97531.40
2022-12-29T05:25:59.790Z,97538.40
2022-12-29T05:28:31.813Z,97537.00
2022-12-29T05:31:04.715Z,97532.20
2022-12-29T05:33:31.635Z,97530.60
2022-12-29T05:35:58.375Z,97529.20
2022-12-29T05:38:25.097Z,97522.80
2022-12-29T05:40:52.021Z,97521.80
2022-12-29T05:43:37.421Z,97518.60
2022-12-29T05:46:30.115Z,97510.60
2022-12-29T05:49:06.350Z,97504.20
2022-12-29T05:51:38.627Z,97510.20
2022-12-29T05:54:05.647Z,97506.20
2022-12-29T05:56:32.373Z,97506.00
2022-12-29T05:59:01.347Z,97508.00
2022-12-29T06:01:28.299Z,97504.60
2022-12-29T06:03:55.656Z,97498.00
2022-12-29T06:06:22.851Z,97495.60
2022-12-29T06:08:49.786Z,97504.00
2022-12-29T06:11:16.575Z,97505.00
2022-12-29T06:13:49.774Z,97503.40
2022-12-29T06:16:16.701Z,97506.80
2022-12-29T06:18:44.463Z,97499.00
2022-12-29T06:21:11.375Z,97495.20
2022-12-29T06:23:38.210Z,97485.80
2022-12-29T06:26:05.282Z,97485.80
2022-12-29T06:28:33.087Z,97480.60
2022-12-29T06:31:01.092Z,97478.80
2022-12-29T06:33:28.280Z,97478.80
2022-12-29T06:35:55.080Z,97480.40
2022-12-29T06:38:21.724Z,97481.20
2022-12-29T06:40:48.461Z,97479.20
2022-12-29T06:43:37.233Z,97469.80
2022-12-29T06:46:22.741Z,97474.40
2022-12-29T06:48:49.509Z,97480.00
2022-12-29T06:51:16.176Z,97483.00
2022-12-29T06:53:44.159Z,97484.40
2022-12-29T06:56:10.941Z,97484.20
2022-12-29T06:58:37.736Z,97477.60
2022-12-29T07:01:04.616Z,97483.00
2022-12-29T07:03:31.595Z,97483.00
2022-12-29T07:05:59.268Z,97476.80
2022-12-29T07:08:26.220Z,97472.40
2022-12-29T07:10:52.933Z,97477.60
2022-12-29T07:13:20.008Z,97475.20
2022-12-29T07:15:46.751Z,97469.00
2022-12-29T07:18:13.408Z,97468.20
2022-12-29T07:20:40.126Z,97473.40
2022-12-29T07:23:06.873Z,97465.20
2022-12-29T07:25:36.078Z,97466.40
2022-12-29T07:28:04.092Z,97458.20
2022-12-29T07:30:30.981Z,97449.40
2022-12-29T07:32:58.127Z,97456.80
2022-12-29T07:35:24.970Z,97455.00
2022-12-29T07:37:51.698Z,97452.20
2022-12-29T07:40:18.408Z,97452.40
2022-12-29T07:42:45.080Z,97459.60
2022-12-29T07:45:12.442Z,97453.20
2022-12-29T07:47:50.759Z,97461.00
2022-12-29T07:50:17.537Z,97457.80
2022-12-29T07:52:44.648Z,97465.20
2022-12-29T07:55:11.705Z,97456.00
2022-12-29T07:57:38.458Z,97463.40
2022-12-29T08:00:05.781Z,97479.20
2022-12-29T08:02:39.370Z,97466.80
2022-12-29T08:05:07.057Z,97464.80
2022-12-29T08:07:33.878Z,97473.20
2022-12-29T08:10:00.640Z,97472.80
2022-12-29T08:12:27.416Z,97462.00
2022-12-29T08:14:54.105Z,97455.20
2022-12-29T08:17:20.762Z,97462.40
2022-12-29T08:19:47.451Z,97458.80
2022-12-29T08:22:15.042Z,97455.00
2022-12-29T08:24:41.949Z,97467.00
2022-12-29T08:27:16.226Z,97483.00
2022-12-29T08:29:47.150Z,97479.40
2022-12-29T08:32:14.267Z,97480.40
2022-12-29T08:34:41.231Z,97488.20
2022-12-29T08:37:08.126Z,97488.60
2022-12-29T08:39:35.434Z,97488.60
2022-12-29T08:42:02.169Z,97495.40
2022-12-29T08:44:28.865Z,97481.80
2022-12-29T08:46:55.600Z,97481.80
2022-12-29T08:49:22.289Z,97486.00
2022-12-29T08:51:49.162Z,97483.60
2022-12-29T08:54:15.830Z,97490.00
2022-12-29T08:56:42.685Z,97491.80
2022-12-29T08:59:09.412Z,97486.80
2022-12-29T09:01:41.527Z,97488.40
2022-12-29T09:04:15.481Z,97487.00
2022-12-29T09:06:42.897Z,97484.60
2022-12-29T09:09:09.927Z,97487.60
2022-12-29T09:11:36.672Z,97488.20
2022-12-29T09:14:03.712Z,97484.80
2022-12-29T09:16:31.031Z,97489.20
2022-12-29T09:18:57.809Z,97489.60
2022-12-29T09:21:24.572Z,97491.20
2022-12-29T09:23:51.311Z,97495.40
2022-12-29T09:26:18.027Z,97493.80
2022-12-29T09:28:45.491Z,97488.20
2022-12-29T09:31:12.593Z,97484.80
2022-12-29T09:33:39.675Z,97483.60
2022-12-29T09:36:06.968Z,97480.60
2022-12-29T09:38:33.672Z,97476.80
2022-12-29T09:41:18.645Z,97489.20
2022-12-29T09:44:10.093Z,97484.60
2022-12-29T09:46:44.685Z,97484.80
2022-12-29T09:49:40.927Z,97486.60
2022-12-29T09:52:16.607Z,97472.40
2022-12-29T09:55:00.958Z,97475.80
2022-12-29T09:58:01.243Z,97471.00
2022-12-29T10:00:41.613Z,97467.20
2022-12-29T10:03:14.730Z,97479.80
2022-12-29T10:05:52.697Z,97474.80
2022-12-29T10:08:34.670Z,97476.20
2022-12-29T10:11:33.247Z,97475.60
2022-12-29T10:14:13.882Z,97483.00
2022-12-29T10:17:07.543Z,97481.80
2022-12-29T10:19:49.650Z,97468.00
2022-12-29T10:22:33.663Z,97463.80
2022-12-29T10:25:03.778Z,97452.40
2022-12-29T10:27:34.083Z,97450.20
2022-12-29T10:30:03.109Z,97450.60
2022-12-29T10:32:39.427Z,97453.00
2022-12-29T10:35:17.052Z,97452.00
2022-12-29T10:37:52.974Z,97457.20
2022-12-29T10:40:52.001Z,97460.20
2022-12-29T10:43:29.535Z,97459.60
2022-12-29T10:46:00.604Z,97459.20
2022-12-29T10:48:32.124Z,97454.60
2022-12-29T10:51:02.687Z,97450.00
2022-12-29T10:53:36.529Z,97439.20
2022-12-29T10:56:10.699Z,97433.00
2022-12-29T10:58:38.110Z,97428.00
2022-12-29T11:01:05.043Z,97423.00
2022-12-29T11:04:05.036Z,97419.00
2022-12-29T11:06:31.755Z,97406.80
2022-12-29T11:09:02.431Z,97411.80
2022-12-29T11:11:35.832Z,97419.60
2022-12-29T11:14:19.625Z,97415.20
2022-12-29T11:16:58.513Z,97400.60
2022-12-29T11:19:28.539Z,97422.60
2022-12-29T11:21:55.589Z,97431.80
2022-12-29T11:24:26.093Z,97434.60
2022-12-29T11:27:10.235Z,97441.40
2022-12-29T11:29:42.810Z,97429.20
2022-12-29T11:32:27.919Z,97429.80
2022-12-29T11:34:55.469Z,97436.00
2022-12-29T11:37:34.886Z,97410.20
2022-12-29T11:40:09.294Z,97425.80
2022-12-29T11:42:41.491Z,97410.40
2022-12-29T11:45:21.515Z,97405.00
2022-12-29T11:47:50.856Z,97409.40
2022-12-29T11:50:33.564Z,97403.60
2022-12-29T11:53:04.798Z,97400.60
2022-12-29T11:55:32.842Z,97395.00
2022-12-29T11:58:03.570Z,97403.00
2022-12-29T12:00:35.675Z,97397.20
2022-12-29T12:03:09.604Z,97386.40
2022-12-29T12:05:58.778Z,97390.00
2022-12-29T12:08:47.575Z,97382.80
2022-12-29T12:11:39.052Z,97383.40
2022-12-29T12:14:16.895Z,97383.60
2022-12-29T12:17:21.091Z,97387.20
2022-12-29T12:19:54.714Z,97388.20
2022-12-29T12:22:34.458Z,97387.40
2022-12-29T12:25:10.618Z,97386.60
2022-12-29T12:27:54.770Z,97385.00
2022-12-29T12:30:24.179Z,97380.00
2022-12-29T12:33:31.979Z,97379.80
2022-12-29T12:36:19.417Z,97369.00
2022-12-29T12:38:51.844Z,97363.40
2022-12-29T12:41:27.422Z,97356.00
2022-12-29T12:44:18.076Z,97354.80
2022-12-29T12:46:56.842Z,97348.60
2022-12-29T12:50:02.570Z,97348.80
2022-12-29T12:52:50.753Z,97334.20
2022-12-29T12:55:45.387Z,97330.60
2022-12-29T12:58:32.409Z,97324.20
2022-12-29T13:01:37.872Z,97325.40
2022-12-29T13:04:46.795Z,97321.80
2022-12-29T13:07:25.946Z,97325.20
2022-12-29T13:09:59.259Z,97326.20
2022-12-29T13:12:47.529Z,97333.40
2022-12-29T13:15:33.037Z,97335.80
2022-12-29T13:18:18.776Z,97329.00
2022-12-29T13:21:21.352Z,97321.80
2022-12-29T13:23:56.367Z,97322.80
2022-12-29T13:26:34.273Z,97324.20
2022-12-29T13:29:05.737Z,97333.60
2022-12-29T13:31:49.246Z,97327.40
2022-12-29T13:34:28.075Z,97323.80
2022-12-29T13:37:01.321Z,97324.20
2022-12-29T13:39:43.575Z,97341.60
2022-12-29T13:42:11.929Z,97340.80
2022-12-29T13:44:44.149Z,97327.60
2022-12-29T13:47:35.748Z,97324.80
2022-12-29T13:50:06.065Z,97330.00
2022-12-29T13:52:44.628Z,97331.80
2022-12-29T13:55:38.778Z,97345.00
2022-12-29T13:58:10.398Z,97339.60
2022-12-29T14:01:08.784Z,97342.60
2022-12-29T14:03:52.426Z,97345.00
2022-12-29T14:06:41.683Z,97343.80
2022-12-29T14:09:44.133Z,97337.60
2022-12-29T14:12:31.360Z,97344.20
2022-12-29T14:15:25.683Z,97347.20
2022-12-29T14:18:11.473Z,97351.20
2022-12-29T14:20:47.445Z,97346.00
2022-12-29T14:23:14.369Z,97351.40
2022-12-29T14:26:05.694Z,97359.20
2022-12-29T14:28:42.770Z,97359.20
2022-12-29T14:31:15.398Z,97357.00
2022-12-29T14:34:03.079Z,97361.00
2022-12-29T14:36:41.184Z,97363.00
2022-12-29T14:39:43.441Z,97367.40
2022-12-29T14:42:10.087Z,97383.20
2022-12-29T14:45:02.643Z,97383.80
2022-12-29T14:47:36.139Z,97380.40
2022-12-29T14:50:32.984Z,97370.80
2022-12-29T14:53:06.201Z,97364.00
2022-12-29T14:55:48.332Z,97365.40
2022-12-29T14:58:30.930Z,97370.80
2022-12-29T15:00:59.002Z,97376.60
2022-12-29T15:03:47.142Z,97371.40
2022-12-29T15:06:23.114Z,97366.80
2022-12-29T15:08:55.400Z,97375.00
2022-12-29T15:11:23.628Z,97377.80
2022-12-29T15:13:51.581Z,97369.20
2022-12-29T15:16:29.921Z,97383.80
2022-12-29T15:18:57.348Z,97379.80
2022-12-29T15:21:31.158Z,97381.20
2022-12-29T15:23:58.498Z,97385.00
2022-12-29T15:26:38.165Z,97383.00
2022-12-29T15:29:04.982Z,97393.80
2022-12-29T15:31:31.767Z,97394.80
2022-12-29T15:34:12.817Z,97390.20
2022-12-29T15:36:42.361Z,97390.40
2022-12-29T15:39:28.945Z,97394.80
2022-12-29T15:42:02.115Z,97399.60
2022-12-29T15:44:44.132Z,97388.60
2022-12-29T15:47:30.734Z,97372.40
2022-12-29T15:50:05.843Z,97385.20
2022-12-29T15:52:34.488Z,97380.00
2022-12-29T15:55:02.513Z,97381.80
2022-12-29T15:57:30.574Z,97378.60
2022-12-29T15:59:57.767Z,97381.00
2022-12-29T16:02:26.357Z,97386.40
2022-12-29T16:05:16.758Z,97385.40
2022-12-29T16:07:54.539Z,97381.40
2022-12-29T16:10:47.548Z,97376.80
2022-12-29T16:13:26.673Z,97374.00
2022-12-29T16:16:01.255Z,97369.20
2022-12-29T16:18:33.782Z,97366.80
2022-12-29T16:21:01.179Z,97362.80
2022-12-29T16:23:30.711Z,97365.00
2022-12-29T16:25:59.000Z,97363.80
2022-12-29T16:28:45.268Z,97371.40
2022-12-29T16:31:36.278Z,97367.60
2022-12-29T16:34:25.691Z,97365.40
2022-12-29T16:37:26.126Z,97363.00
2022-12-29T16:39:52.841Z,97366.20
2022-12-29T16:42:51.355Z,97373.80
2022-12-29T16:45:22.347Z,97372.80
2022-12-29T16:47:55.093Z,97373.00
2022-12-29T16:50:28.078Z,97373.60
2022-12-29T16:52:55.606Z,97378.00
2022-12-29T16:55:22.454Z,97371.40
2022-12-29T16:57:51.444Z,97374.80
2022-12-29T17:00:24.192Z,97379.20
2022-12-29T17:02:55.191Z,97375.60
2022-12-29T17:05:22.417Z,97375.80
2022-12-29T17:07:50.520Z,97377.00
2022-12-29T17:10:18.261Z,97388.40
2022-12-29T17:12:48.397Z,97389.40
2022-12-29T17:15:25.862Z,97390.40
2022-12-29T17:17:56.038Z,97396.40
2022-12-29T17:20:25.870Z,97404.60
2022-12-29T17:22:56.564Z,97404.80
2022-12-29T17:25:39.339Z,97411.60
2022-12-29T17:28:21.897Z,97415.60
2022-12-29T17:30:49.735Z,97419.40
2022-12-29T17:33:20.063Z,97423.80
2022-12-29T17:35:50.535Z,97421.60
2022-12-29T17:38:24.229Z,97424.60
2022-12-29T17:40:51.166Z,97422.20
2022-12-29T17:43:18.775Z,97418.80
2022-12-29T17:45:49.594Z,97417.40
2022-12-29T17:48:18.605Z,97416.80
2022-12-29T17:50:47.922Z,97421.00
2022-12-29T17:53:17.806Z,97419.40
2022-12-29T17:55:44.765Z,97419.20
2022-12-29T17:58:14.240Z,97410.00
2022-12-29T18:00:41.242Z,97408.60
2022-12-29T18:03:14.401Z,97406.40
2022-12-29T18:05:41.210Z,97400.80
2022-12-29T18:08:11.403Z,97400.40
2022-12-29T18:10:39.646Z,97397.40
2022-12-29T18:13:06.662Z,97401.00
2022-12-29T18:15:36.350Z,97394.40
2022-12-29T18:18:18.306Z,97396.80
2022-12-29T18:20:46.789Z,97389.20
2022-12-29T18:23:23.705Z,97392.40
2022-12-29T18:26:01.465Z,97391.20
2022-12-29T18:28:29.006Z,97391.40
2022-12-29T18:31:01.593Z,97385.20
2022-12-29T18:33:28.976Z,97388.40
2022-12-29T18:35:59.020Z,97399.40
2022-12-29T18:38:26.410Z,97405.80
2022-12-29T18:40:54.103Z,97408.40
2022-12-29T18:43:21.328Z,97411.40
2022-12-29T18:45:48.577Z,97413.40
2022-12-29T18:48:16.383Z,97411.80
2022-12-29T18:50:43.755Z,97413.60
2022-12-29T18:53:21.108Z,97404.40
2022-12-29T18:55:47.877Z,97408.00
2022-12-29T18:58:14.670Z,97406.40
2022-12-29T19:00:41.888Z,97409.80
2022-12-29T19:03:12.571Z,97410.20
2022-12-29T19:05:41.074Z,97415.00
2022-12-29T19:08:09.313Z,97416.00
2022-12-29T19:10:37.225Z,97415.00
2022-12-29T19:13:05.134Z,97415.20
2022-12-29T19:15:35.397Z,97407.20
2022-12-29T19:20:52.978Z,97412.60
2022-12-29T19:23:24.668Z,97416.00
2022-12-29T19:25:52.505Z,97420.60
2022-12-29T19:28:25.027Z,97425.40
2022-12-29T19:30:54.596Z,97425.00
2022-12-29T19:33:24.228Z,97418.20
2022-12-29T19:35:52.236Z,97418.80
2022-12-29T19:38:19.760Z,97416.40
2022-12-29T19:40:49.283Z,97412.40
2022-12-29T19:43:17.223Z,97411.80
2022-12-29T19:45:45.480Z,97407.80
2022-12-29T19:48:18.286Z,97407.20
2022-12-29T19:50:45.619Z,97410.20
2022-12-29T19:53:14.413Z,97411.40
2022-12-29T19:55:47.790Z,97415.80
2022-12-29T19:58:15.486Z,97408.80
2022-12-29T20:00:43.592Z,97401.40
2022-12-29T20:03:11.002Z,97404.20
2022-12-29T20:05:38.985Z,97404.60
2022-12-29T20:08:05.718Z,97400.80
2022-12-29T20:10:32.404Z,97402.40
2022-12-29T20:12:59.190Z,97398.60
2022-12-29T20:15:25.856Z,97397.40
2022-12-29T20:20:39.220Z,97396.20
2022-12-29T20:23:05.929Z,97392.60
2022-12-29T20:25:48.638Z,97393.00
2022-12-29T20:28:16.163Z,97395.80
2022-12-29T20:30:43.349Z,97396.60
2022-12-29T20:33:10.387Z,97404.60
2022-12-29T20:35:37.605Z,97407.40
2022-12-29T20:38:05.324Z,97400.20
2022-12-29T20:40:32.132Z,97398.60
2022-12-29T20:42:58.918Z,97391.00
2022-12-29T20:45:25.904Z,97390.40
2022-12-29T20:47:52.737Z,97392.20
2022-12-29T20:50:19.495Z,97390.80
2022-12-29T20:52:47.123Z,97390.20
2022-12-29T20:55:14.358Z,97391.40
2022-12-29T21:00:30.593Z,97395.40
2022-12-29T21:02:59.504Z,97393.20
2022-12-29T21:05:27.758Z,97385.60
2022-12-29T21:07:55.667Z,97389.20
2022-12-29T21:10:23.150Z,97384.80
2022-12-29T21:12:51.178Z,97385.80
2022-12-29T21:15:17.988Z,97393.20
2022-12-29T21:17:44.685Z,97399.80
2022-12-29T21:20:30.250Z,97401.00
2022-12-29T21:22:59.888Z,97405.40
2022-12-29T21:25:36.855Z,97402.80
2022-12-29T21:28:08.487Z,97403.00
2022-12-29T21:30:35.697Z,97404.80
2022-12-29T21:33:02.685Z,97404.40
2022-12-29T21:35:29.437Z,97400.80
2022-12-29T21:37:56.601Z,97406.80
2022-12-29T21:40:23.282Z,97397.40
2022-12-29T21:42:50.064Z,97401.60
2022-12-29T21:45:25.866Z,97404.60
2022-12-29T21:48:13.125Z,97399.20
2022-12-29T21:51:00.464Z,97393.60
2022-12-29T21:53:38.312Z,97389.60
2022-12-29T21:56:11.091Z,97388.60
2022-12-29T21:58:57.946Z,97388.80
2022-12-29T22:01:45.288Z,97386.40
2022-12-29T22:04:33.149Z,97385.80
2022-12-29T22:07:19.797Z,97380.60
2022-12-29T22:10:04.999Z,97386.60
2022-12-29T22:12:51.774Z,97384.00
2022-12-29T22:15:18.633Z,97389.00
2022-12-29T22:17:50.019Z,97392.60
2022-12-29T22:20:18.474Z,97394.40
2022-12-29T22:22:45.160Z,97395.60
2022-12-29T22:25:11.921Z,97392.00
2022-12-29T22:27:38.691Z,97395.20
2022-12-29T22:30:06.896Z,97383.20
2022-12-29T22:32:34.735Z,97383.80
2022-12-29T22:35:07.558Z,97369.80
2022-12-29T22:37:36.229Z,97375.60
2022-12-29T22:40:04.053Z,97374.40
2022-12-29T22:42:30.966Z,97374.00
2022-12-29T22:44:57.655Z,97369.40
2022-12-29T22:47:24.488Z,97368.20
2022-12-29T22:49:51.432Z,97372.80
2022-12-29T22:52:18.504Z,97368.00
2022-12-29T22:54:45.286Z,97365.60
2022-12-29T22:57:12.167Z,97369.40
2022-12-29T22:59:40.152Z,97364.40
2022-12-29T23:02:07.008Z,97361.00
2022-12-29T23:07:20.730Z,97369.20
2022-12-29T23:09:47.455Z,97362.60
2022-12-29T23:12:14.237Z,97360.60
2022-12-29T23:14:40.909Z,97352.00
2022-12-29T23:17:07.622Z,97352.80
2022-12-29T23:19:34.341Z,97351.60
2022-12-29T23:22:01.582Z,97353.60
2022-12-29T23:24:28.275Z,97346.40
2022-12-29T23:26:54.991Z,97349.00
2022-12-29T23:29:21.843Z,97348.00
2022-12-29T23:31:48.976Z,97348.40
2022-12-29T23:34:17.548Z,97338.00
2022-12-29T23:36:44.667Z,97342.20
2022-12-29T23:39:18.800Z,97342.80
2022-12-29T23:41:45.563Z,97335.20
2022-12-29T23:44:12.221Z,97335.00
2022-12-29T23:46:40.200Z,97331.60
2022-12-29T23:49:08.912Z,97327.20
2022-12-29T23:51:35.642Z,97325.40
2022-12-29T23:54:02.370Z,97331.80
2022-12-29T23:56:29.355Z,97331.00
2022-12-29T23:58:56.099Z,97335.00
